Summertime — XPE2741 — position and weather

sailwx.info

Track history (hours):
 
Tides and Currents Weather Stations Pressure Air Temp Water Temp Dewpoint Dewpoint Depression Visibility Wind Speed Wind Dir Waves Ship Positions

Summertime

Last reported at 2015-Aug-04 13:33 UTC. Time now 2015-Aug-04 13:50 UTC.
Position N 38°46' W 009°36'.

Length 15 m.

Type: Sailing vessel. MMSI: 219014761.

Date/timePositionNaut miles runAvg speedWind from/ knotsBaromVisibWave heightAir tempDewpointWater temp
2015-Aug-04 13:33N 38°46' W 009°36'5 4.5
2015-Aug-04 12:31N 38°42' W 009°38'6 6.4
2015-Aug-04 11:33N 38°41' W 009°30'4 0.2
2015-Aug-03 17:14N 38°41' W 009°25'1 1.1
2015-Aug-03 16:33N 38°41' W 009°24'4 4.2
2015-Aug-03 15:33N 38°38' W 009°21'4 4.1
2015-Aug-03 14:33N 38°34' W 009°18'7 7.0
2015-Aug-03 13:32N 38°27' W 009°19'7 7.1
2015-Aug-03 12:33N 38°21' W 009°22'6 6.5
2015-Aug-03 11:33N 38°15' W 009°26'6 6.5
2015-Aug-03 10:33N 38°10' W 009°31'7 6.9
2015-Aug-03 09:32N 38°06' W 009°38'13 3.0
2015-Aug-03 05:21N 37°54' W 009°35'4 5.5
2015-Aug-03 04:32N 37°52' W 009°30'5 3.9
2015-Aug-03 03:08N 37°51' W 009°23'4 6.1
2015-Aug-03 02:33N 37°49' W 009°19'6 6.0
2015-Aug-03 01:33N 37°47' W 009°12'5 4.5
2015-Aug-03 00:33N 37°43' W 009°09'5 4.9
2015-Aug-02 23:31N 37°39' W 009°12'7 7.2
2015-Aug-02 22:31N 37°33' W 009°18'6 6.4
2015-Aug-02 21:32N 37°30' W 009°24'16 4.0
2015-Aug-02 17:33N 37°16' W 009°34'44 1.5
2015-Aug-01 12:15N 37°06' W 008°40'7 1.0
2015-Aug-01 05:33N 37°03' W 008°32'4 3.6
2015-Aug-01 04:29N 37°02' W 008°27'  
2015-Jul-25 17:33N 37°33' W 000°46'12 5.6
2015-Jul-25 15:24N 37°41' W 000°35'  
Track history (hours):
 
Tides and Currents Weather Stations Pressure Air Temp Water Temp Dewpoint Dewpoint Depression Visibility Wind Speed Wind Dir Waves Ship Positions

Summertime

Last reported at 2015-Aug-04 13:33 UTC. Time now 2015-Aug-04 13:50 UTC.
Position N 38°46' W 009°36'.

Length 15 m.

Type: Sailing vessel. MMSI: 219014761.

Date/timePositionNaut miles runAvg speedWind from/ knotsBaromVisibWave heightAir tempDewpointWater temp
2015-Aug-04 13:33N 38°46' W 009°36'5 4.5
2015-Aug-04 12:31N 38°42' W 009°38'6 6.4
2015-Aug-04 11:33N 38°41' W 009°30'4 0.2
2015-Aug-03 17:14N 38°41' W 009°25'1 1.1
2015-Aug-03 16:33N 38°41' W 009°24'4 4.2
2015-Aug-03 15:33N 38°38' W 009°21'4 4.1
2015-Aug-03 14:33N 38°34' W 009°18'7 7.0
2015-Aug-03 13:32N 38°27' W 009°19'7 7.1
2015-Aug-03 12:33N 38°21' W 009°22'6 6.5
2015-Aug-03 11:33N 38°15' W 009°26'6 6.5
2015-Aug-03 10:33N 38°10' W 009°31'7 6.9
2015-Aug-03 09:32N 38°06' W 009°38'13 3.0
2015-Aug-03 05:21N 37°54' W 009°35'4 5.5
2015-Aug-03 04:32N 37°52' W 009°30'5 3.9
2015-Aug-03 03:08N 37°51' W 009°23'4 6.1
2015-Aug-03 02:33N 37°49' W 009°19'6 6.0
2015-Aug-03 01:33N 37°47' W 009°12'5 4.5
2015-Aug-03 00:33N 37°43' W 009°09'5 4.9
2015-Aug-02 23:31N 37°39' W 009°12'7 7.2
2015-Aug-02 22:31N 37°33' W 009°18'6 6.4
2015-Aug-02 21:32N 37°30' W 009°24'16 4.0
2015-Aug-02 17:33N 37°16' W 009°34'44 1.5
2015-Aug-01 12:15N 37°06' W 008°40'7 1.0
2015-Aug-01 05:33N 37°03' W 008°32'4 3.6
2015-Aug-01 04:29N 37°02' W 008°27'  
2015-Jul-25 17:33N 37°33' W 000°46'12 5.6
2015-Jul-25 15:24N 37°41' W 000°35'  

Dump ship's entire track history